Terminal Aerodrome Forecast
Issued by NWS Green Bay, WI

Home | Current Version | Previous Version | Text Only | Print | Product List | Glossary On
Versions: 1 2 3 4 5 6 7 8 9 10 11 12 13 14 15 16 17 18 19 20 21 22 23 24 25 26 27 28 29 30 31
000
FTUS43 KGRB 180300 AAA
TAFGRB
TAF AMD
KGRB 180324Z 1803/1824 04012G21KT P6SM BKN012 BKN070
     FM180700 03012G20KT P6SM SCT012 BKN020
     FM181000 04010KT P6SM SCT020
     FM181600 06007KT P6SM SCT025 SCT050=

USA.gov is the U.S. government's official web portal to all federal, state and local government web resources and services.